sensor_id;sensor_type;location;lat;lon;timestamp;P1;durP1;ratioP1;P2;durP2;ratioP2
18104;SDS011;9179;50.968;3.134;2023-05-07T00:00:48;12.15;;;9.52;;
18104;SDS011;9179;50.968;3.134;2023-05-07T00:03:16;11.85;;;9.95;;
18104;SDS011;9179;50.968;3.134;2023-05-07T00:05:44;10.80;;;8.68;;
18104;SDS011;9179;50.968;3.134;2023-05-07T00:08:11;14.02;;;9.88;;
18104;SDS011;9179;50.968;3.134;2023-05-07T00:10:38;11.23;;;9.25;;
18104;SDS011;9179;50.968;3.134;2023-05-07T00:13:06;10.98;;;9.80;;
18104;SDS011;9179;50.968;3.134;2023-05-07T00:15:33;14.40;;;10.45;;
18104;SDS011;9179;50.968;3.134;2023-05-07T00:18:00;11.50;;;9.60;;
18104;SDS011;9179;50.968;3.134;2023-05-07T00:20:27;12.77;;;9.20;;
18104;SDS011;9179;50.968;3.134;2023-05-07T00:22:54;12.85;;;9.90;;
18104;SDS011;9179;50.968;3.134;2023-05-07T00:25:21;10.00;;;9.10;;
18104;SDS011;9179;50.968;3.134;2023-05-07T00:27:48;10.07;;;8.65;;
18104;SDS011;9179;50.968;3.134;2023-05-07T00:30:16;10.52;;;9.30;;
18104;SDS011;9179;50.968;3.134;2023-05-07T00:32:44;10.63;;;9.48;;
18104;SDS011;9179;50.968;3.134;2023-05-07T00:35:11;11.10;;;8.77;;
18104;SDS011;9179;50.968;3.134;2023-05-07T00:37:38;11.13;;;9.88;;
18104;SDS011;9179;50.968;3.134;2023-05-07T00:40:06;9.57;;;8.65;;
18104;SDS011;9179;50.968;3.134;2023-05-07T00:42:33;11.77;;;9.43;;
18104;SDS011;9179;50.968;3.134;2023-05-07T00:45:00;10.35;;;9.30;;
18104;SDS011;9179;50.968;3.134;2023-05-07T00:47:29;12.25;;;9.30;;
18104;SDS011;9179;50.968;3.134;2023-05-07T00:49:56;9.98;;;9.00;;
18104;SDS011;9179;50.968;3.134;2023-05-07T00:52:23;13.15;;;9.63;;
18104;SDS011;9179;50.968;3.134;2023-05-07T00:54:52;13.45;;;9.57;;
18104;SDS011;9179;50.968;3.134;2023-05-07T00:57:20;9.90;;;8.80;;
18104;SDS011;9179;50.968;3.134;2023-05-07T00:59:47;9.60;;;8.60;;
18104;SDS011;9179;50.968;3.134;2023-05-07T01:02:15;13.52;;;9.52;;
18104;SDS011;9179;50.968;3.134;2023-05-07T01:04:44;11.15;;;9.38;;
18104;SDS011;9179;50.968;3.134;2023-05-07T01:07:11;11.77;;;8.75;;
18104;SDS011;9179;50.968;3.134;2023-05-07T01:09:38;9.80;;;8.75;;
18104;SDS011;9179;50.968;3.134;2023-05-07T01:12:06;12.90;;;9.15;;
18104;SDS011;9179;50.968;3.134;2023-05-07T01:14:34;12.02;;;9.23;;
18104;SDS011;9179;50.968;3.134;2023-05-07T01:17:01;13.63;;;8.55;;
18104;SDS011;9179;50.968;3.134;2023-05-07T01:19:28;13.10;;;9.15;;
18104;SDS011;9179;50.968;3.134;2023-05-07T01:21:59;14.15;;;9.38;;
18104;SDS011;9179;50.968;3.134;2023-05-07T01:24:31;9.07;;;8.00;;
18104;SDS011;9179;50.968;3.134;2023-05-07T01:26:58;10.20;;;9.20;;
18104;SDS011;9179;50.968;3.134;2023-05-07T01:29:26;11.30;;;8.77;;
18104;SDS011;9179;50.968;3.134;2023-05-07T01:31:54;10.05;;;8.52;;
18104;SDS011;9179;50.968;3.134;2023-05-07T01:34:24;9.32;;;8.43;;
18104;SDS011;9179;50.968;3.134;2023-05-07T01:36:52;9.48;;;8.48;;
18104;SDS011;9179;50.968;3.134;2023-05-07T01:39:20;10.55;;;9.52;;
18104;SDS011;9179;50.968;3.134;2023-05-07T01:41:49;9.52;;;8.25;;
18104;SDS011;9179;50.968;3.134;2023-05-07T01:44:16;10.82;;;8.73;;
18104;SDS011;9179;50.968;3.134;2023-05-07T01:46:45;11.13;;;8.60;;
18104;SDS011;9179;50.968;3.134;2023-05-07T01:49:14;14.40;;;9.43;;
18104;SDS011;9179;50.968;3.134;2023-05-07T01:51:42;10.45;;;8.40;;
18104;SDS011;9179;50.968;3.134;2023-05-07T01:54:10;10.98;;;8.63;;
18104;SDS011;9179;50.968;3.134;2023-05-07T01:56:37;9.32;;;8.05;;
18104;SDS011;9179;50.968;3.134;2023-05-07T01:59:05;13.75;;;8.68;;
18104;SDS011;9179;50.968;3.134;2023-05-07T02:01:32;13.65;;;9.23;;
18104;SDS011;9179;50.968;3.134;2023-05-07T02:03:59;9.80;;;8.82;;
18104;SDS011;9179;50.968;3.134;2023-05-07T02:06:26;9.98;;;8.98;;
18104;SDS011;9179;50.968;3.134;2023-05-07T02:08:53;11.02;;;8.50;;
18104;SDS011;9179;50.968;3.134;2023-05-07T02:11:20;11.25;;;8.32;;
18104;SDS011;9179;50.968;3.134;2023-05-07T02:13:47;10.05;;;8.68;;
18104;SDS011;9179;50.968;3.134;2023-05-07T02:16:15;11.13;;;8.00;;
18104;SDS011;9179;50.968;3.134;2023-05-07T02:18:42;11.02;;;8.80;;
18104;SDS011;9179;50.968;3.134;2023-05-07T02:21:09;10.10;;;8.85;;
18104;SDS011;9179;50.968;3.134;2023-05-07T02:23:36;10.38;;;9.35;;
18104;SDS011;9179;50.968;3.134;2023-05-07T02:26:03;10.57;;;8.80;;
18104;SDS011;9179;50.968;3.134;2023-05-07T02:28:30;11.68;;;8.55;;
18104;SDS011;9179;50.968;3.134;2023-05-07T02:30:58;10.05;;;9.00;;
18104;SDS011;9179;50.968;3.134;2023-05-07T02:33:27;10.68;;;8.40;;
18104;SDS011;9179;50.968;3.134;2023-05-07T02:35:54;12.20;;;9.13;;
18104;SDS011;9179;50.968;3.134;2023-05-07T02:38:21;10.05;;;8.57;;
18104;SDS011;9179;50.968;3.134;2023-05-07T02:40:48;13.73;;;9.82;;
18104;SDS011;9179;50.968;3.134;2023-05-07T02:43:15;11.73;;;8.50;;
18104;SDS011;9179;50.968;3.134;2023-05-07T02:45:42;10.05;;;8.88;;
18104;SDS011;9179;50.968;3.134;2023-05-07T02:48:09;11.02;;;8.90;;
18104;SDS011;9179;50.968;3.134;2023-05-07T02:50:37;11.55;;;9.35;;
18104;SDS011;9179;50.968;3.134;2023-05-07T02:53:04;11.80;;;9.68;;
18104;SDS011;9179;50.968;3.134;2023-05-07T02:55:31;10.93;;;9.23;;
18104;SDS011;9179;50.968;3.134;2023-05-07T02:57:58;10.77;;;8.68;;
18104;SDS011;9179;50.968;3.134;2023-05-07T03:00:25;11.50;;;9.52;;
18104;SDS011;9179;50.968;3.134;2023-05-07T03:02:52;11.35;;;9.02;;
18104;SDS011;9179;50.968;3.134;2023-05-07T03:05:19;9.75;;;8.88;;
18104;SDS011;9179;50.968;3.134;2023-05-07T03:07:47;11.00;;;8.73;;
18104;SDS011;9179;50.968;3.134;2023-05-07T03:10:15;9.70;;;8.60;;
18104;SDS011;9179;50.968;3.134;2023-05-07T03:12:42;10.35;;;9.23;;
18104;SDS011;9179;50.968;3.134;2023-05-07T03:15:09;14.45;;;9.55;;
18104;SDS011;9179;50.968;3.134;2023-05-07T03:17:37;9.65;;;8.65;;
18104;SDS011;9179;50.968;3.134;2023-05-07T03:20:05;10.38;;;8.75;;
18104;SDS011;9179;50.968;3.134;2023-05-07T03:22:33;11.77;;;9.27;;
18104;SDS011;9179;50.968;3.134;2023-05-07T03:25:01;11.43;;;9.73;;
18104;SDS011;9179;50.968;3.134;2023-05-07T03:27:29;9.80;;;8.75;;
18104;SDS011;9179;50.968;3.134;2023-05-07T03:29:56;10.32;;;9.05;;
18104;SDS011;9179;50.968;3.134;2023-05-07T03:32:23;11.13;;;9.60;;
18104;SDS011;9179;50.968;3.134;2023-05-07T03:34:50;11.23;;;9.98;;
18104;SDS011;9179;50.968;3.134;2023-05-07T03:37:17;10.52;;;8.80;;
18104;SDS011;9179;50.968;3.134;2023-05-07T03:39:44;10.88;;;9.35;;
18104;SDS011;9179;50.968;3.134;2023-05-07T03:42:13;10.45;;;9.48;;
18104;SDS011;9179;50.968;3.134;2023-05-07T03:44:40;10.35;;;9.25;;
18104;SDS011;9179;50.968;3.134;2023-05-07T03:47:06;11.18;;;10.05;;
18104;SDS011;9179;50.968;3.134;2023-05-07T03:49:35;10.57;;;9.27;;
18104;SDS011;9179;50.968;3.134;2023-05-07T03:52:02;11.80;;;10.45;;
18104;SDS011;9179;50.968;3.134;2023-05-07T03:54:29;12.40;;;10.98;;
18104;SDS011;9179;50.968;3.134;2023-05-07T03:56:56;10.30;;;9.30;;
18104;SDS011;9179;50.968;3.134;2023-05-07T03:59:25;10.73;;;9.60;;
18104;SDS011;9179;50.968;3.134;2023-05-07T04:01:51;13.63;;;10.25;;
18104;SDS011;9179;50.968;3.134;2023-05-07T04:04:18;13.60;;;10.73;;
18104;SDS011;9179;50.968;3.134;2023-05-07T04:06:46;11.55;;;9.52;;
18104;SDS011;9179;50.968;3.134;2023-05-07T04:09:13;13.10;;;9.35;;
18104;SDS011;9179;50.968;3.134;2023-05-07T04:11:40;13.70;;;9.68;;
18104;SDS011;9179;50.968;3.134;2023-05-07T04:14:07;12.70;;;10.27;;
18104;SDS011;9179;50.968;3.134;2023-05-07T04:16:35;10.68;;;9.68;;
18104;SDS011;9179;50.968;3.134;2023-05-07T04:19:02;10.52;;;9.55;;
18104;SDS011;9179;50.968;3.134;2023-05-07T04:21:29;11.75;;;10.55;;
18104;SDS011;9179;50.968;3.134;2023-05-07T04:23:56;10.50;;;9.50;;
18104;SDS011;9179;50.968;3.134;2023-05-07T04:26:23;14.57;;;10.32;;
18104;SDS011;9179;50.968;3.134;2023-05-07T04:28:50;12.57;;;10.75;;
18104;SDS011;9179;50.968;3.134;2023-05-07T04:31:17;12.10;;;10.35;;
18104;SDS011;9179;50.968;3.134;2023-05-07T04:33:46;13.45;;;10.00;;
18104;SDS011;9179;50.968;3.134;2023-05-07T04:36:13;13.20;;;10.23;;
18104;SDS011;9179;50.968;3.134;2023-05-07T04:38:40;13.88;;;10.13;;
18104;SDS011;9179;50.968;3.134;2023-05-07T04:41:08;11.90;;;10.63;;
18104;SDS011;9179;50.968;3.134;2023-05-07T04:43:36;10.80;;;9.70;;
18104;SDS011;9179;50.968;3.134;2023-05-07T04:46:03;14.02;;;9.13;;
18104;SDS011;9179;50.968;3.134;2023-05-07T04:48:30;12.85;;;10.88;;
18104;SDS011;9179;50.968;3.134;2023-05-07T04:50:58;11.38;;;9.90;;
18104;SDS011;9179;50.968;3.134;2023-05-07T04:53:25;10.80;;;9.15;;
18104;SDS011;9179;50.968;3.134;2023-05-07T04:55:54;11.80;;;9.23;;
18104;SDS011;9179;50.968;3.134;2023-05-07T04:58:22;11.02;;;9.93;;
18104;SDS011;9179;50.968;3.134;2023-05-07T05:00:49;12.35;;;9.70;;
18104;SDS011;9179;50.968;3.134;2023-05-07T05:03:16;11.80;;;10.60;;
18104;SDS011;9179;50.968;3.134;2023-05-07T05:05:43;13.68;;;10.75;;
18104;SDS011;9179;50.968;3.134;2023-05-07T05:08:12;12.25;;;9.90;;
18104;SDS011;9179;50.968;3.134;2023-05-07T05:10:39;10.55;;;9.52;;
18104;SDS011;9179;50.968;3.134;2023-05-07T05:13:08;12.30;;;10.20;;
18104;SDS011;9179;50.968;3.134;2023-05-07T05:15:37;10.93;;;9.82;;
18104;SDS011;9179;50.968;3.134;2023-05-07T05:18:04;12.52;;;9.52;;
18104;SDS011;9179;50.968;3.134;2023-05-07T05:20:31;13.25;;;10.38;;
18104;SDS011;9179;50.968;3.134;2023-05-07T05:22:58;11.43;;;10.40;;
18104;SDS011;9179;50.968;3.134;2023-05-07T05:25:26;10.65;;;9.68;;
18104;SDS011;9179;50.968;3.134;2023-05-07T05:27:53;13.57;;;10.40;;
18104;SDS011;9179;50.968;3.134;2023-05-07T05:30:20;12.93;;;10.80;;
18104;SDS011;9179;50.968;3.134;2023-05-07T05:32:47;11.00;;;9.68;;
18104;SDS011;9179;50.968;3.134;2023-05-07T05:35:14;12.35;;;11.02;;
18104;SDS011;9179;50.968;3.134;2023-05-07T05:37:41;11.75;;;10.48;;
18104;SDS011;9179;50.968;3.134;2023-05-07T05:40:08;11.90;;;10.80;;
18104;SDS011;9179;50.968;3.134;2023-05-07T05:42:37;12.32;;;9.82;;
18104;SDS011;9179;50.968;3.134;2023-05-07T05:45:05;11.77;;;10.60;;
18104;SDS011;9179;50.968;3.134;2023-05-07T05:47:33;11.55;;;10.43;;
18104;SDS011;9179;50.968;3.134;2023-05-07T05:50:00;12.55;;;10.15;;
18104;SDS011;9179;50.968;3.134;2023-05-07T05:52:27;11.70;;;10.55;;
18104;SDS011;9179;50.968;3.134;2023-05-07T05:54:54;14.38;;;10.18;;
18104;SDS011;9179;50.968;3.134;2023-05-07T05:57:20;11.70;;;10.55;;
18104;SDS011;9179;50.968;3.134;2023-05-07T05:59:49;11.75;;;10.50;;
18104;SDS011;9179;50.968;3.134;2023-05-07T06:02:16;12.07;;;10.18;;
18104;SDS011;9179;50.968;3.134;2023-05-07T06:04:43;13.52;;;10.55;;
18104;SDS011;9179;50.968;3.134;2023-05-07T06:07:10;12.88;;;10.85;;
18104;SDS011;9179;50.968;3.134;2023-05-07T06:09:37;11.40;;;10.13;;
18104;SDS011;9179;50.968;3.134;2023-05-07T06:12:04;11.35;;;10.15;;
18104;SDS011;9179;50.968;3.134;2023-05-07T06:14:31;11.50;;;10.32;;
18104;SDS011;9179;50.968;3.134;2023-05-07T06:16:59;11.25;;;10.02;;
18104;SDS011;9179;50.968;3.134;2023-05-07T06:19:26;11.35;;;10.25;;
18104;SDS011;9179;50.968;3.134;2023-05-07T06:21:53;11.15;;;10.20;;
18104;SDS011;9179;50.968;3.134;2023-05-07T06:24:21;11.73;;;10.23;;
18104;SDS011;9179;50.968;3.134;2023-05-07T06:26:48;13.52;;;10.65;;
18104;SDS011;9179;50.968;3.134;2023-05-07T06:29:15;11.50;;;10.40;;
18104;SDS011;9179;50.968;3.134;2023-05-07T06:31:42;13.05;;;10.50;;
18104;SDS011;9179;50.968;3.134;2023-05-07T06:34:10;15.35;;;9.43;;
18104;SDS011;9179;50.968;3.134;2023-05-07T06:36:39;10.52;;;9.52;;
18104;SDS011;9179;50.968;3.134;2023-05-07T06:39:06;13.82;;;9.82;;
18104;SDS011;9179;50.968;3.134;2023-05-07T06:41:33;12.10;;;10.68;;
18104;SDS011;9179;50.968;3.134;2023-05-07T06:44:00;11.70;;;10.63;;
18104;SDS011;9179;50.968;3.134;2023-05-07T06:46:28;12.18;;;10.95;;
18104;SDS011;9179;50.968;3.134;2023-05-07T06:48:55;12.13;;;10.68;;
18104;SDS011;9179;50.968;3.134;2023-05-07T06:51:23;11.82;;;10.43;;
18104;SDS011;9179;50.968;3.134;2023-05-07T06:53:50;13.20;;;10.55;;
18104;SDS011;9179;50.968;3.134;2023-05-07T06:56:17;13.70;;;11.02;;
18104;SDS011;9179;50.968;3.134;2023-05-07T06:58:44;10.90;;;9.90;;
18104;SDS011;9179;50.968;3.134;2023-05-07T07:01:11;13.55;;;12.15;;
18104;SDS011;9179;50.968;3.134;2023-05-07T07:03:38;12.25;;;10.55;;
18104;SDS011;9179;50.968;3.134;2023-05-07T07:06:05;11.57;;;10.20;;
18104;SDS011;9179;50.968;3.134;2023-05-07T07:08:34;11.60;;;10.50;;
18104;SDS011;9179;50.968;3.134;2023-05-07T07:11:03;11.45;;;10.20;;
18104;SDS011;9179;50.968;3.134;2023-05-07T07:13:30;16.50;;;11.00;;
18104;SDS011;9179;50.968;3.134;2023-05-07T07:15:57;14.05;;;11.48;;
18104;SDS011;9179;50.968;3.134;2023-05-07T07:18:24;12.65;;;10.77;;
18104;SDS011;9179;50.968;3.134;2023-05-07T07:20:51;13.30;;;11.38;;
18104;SDS011;9179;50.968;3.134;2023-05-07T07:23:18;11.95;;;10.68;;
18104;SDS011;9179;50.968;3.134;2023-05-07T07:25:47;17.55;;;10.18;;
18104;SDS011;9179;50.968;3.134;2023-05-07T07:28:14;15.02;;;10.40;;
18104;SDS011;9179;50.968;3.134;2023-05-07T07:30:41;13.85;;;10.85;;
18104;SDS011;9179;50.968;3.134;2023-05-07T07:33:08;11.85;;;10.13;;
18104;SDS011;9179;50.968;3.134;2023-05-07T07:35:35;11.32;;;9.98;;
18104;SDS011;9179;50.968;3.134;2023-05-07T07:38:02;11.70;;;10.50;;
18104;SDS011;9179;50.968;3.134;2023-05-07T07:40:29;10.98;;;9.95;;
18104;SDS011;9179;50.968;3.134;2023-05-07T07:42:57;10.75;;;9.73;;
18104;SDS011;9179;50.968;3.134;2023-05-07T07:45:26;10.57;;;9.55;;
18104;SDS011;9179;50.968;3.134;2023-05-07T07:47:54;11.38;;;10.23;;
18104;SDS011;9179;50.968;3.134;2023-05-07T07:50:21;12.80;;;10.20;;
18104;SDS011;9179;50.968;3.134;2023-05-07T07:52:48;12.05;;;9.75;;
18104;SDS011;9179;50.968;3.134;2023-05-07T07:55:15;15.80;;;10.70;;
18104;SDS011;9179;50.968;3.134;2023-05-07T07:57:48;12.85;;;10.27;;
18104;SDS011;9179;50.968;3.134;2023-05-07T08:00:17;10.57;;;9.57;;
18104;SDS011;9179;50.968;3.134;2023-05-07T08:02:44;12.07;;;10.25;;
18104;SDS011;9179;50.968;3.134;2023-05-07T08:05:12;12.02;;;10.45;;
18104;SDS011;9179;50.968;3.134;2023-05-07T08:07:38;11.93;;;10.82;;
18104;SDS011;9179;50.968;3.134;2023-05-07T08:10:06;12.60;;;11.30;;
18104;SDS011;9179;50.968;3.134;2023-05-07T08:12:33;12.32;;;11.10;;
18104;SDS011;9179;50.968;3.134;2023-05-07T08:15:00;12.98;;;11.07;;
18104;SDS011;9179;50.968;3.134;2023-05-07T08:17:29;13.48;;;11.85;;
18104;SDS011;9179;50.968;3.134;2023-05-07T08:19:55;12.38;;;11.05;;
18104;SDS011;9179;50.968;3.134;2023-05-07T08:22:23;12.23;;;11.13;;
18104;SDS011;9179;50.968;3.134;2023-05-07T08:24:50;11.80;;;10.70;;
18104;SDS011;9179;50.968;3.134;2023-05-07T08:27:20;11.30;;;10.27;;
18104;SDS011;9179;50.968;3.134;2023-05-07T08:29:47;10.50;;;9.60;;
18104;SDS011;9179;50.968;3.134;2023-05-07T08:32:14;11.13;;;9.80;;
18104;SDS011;9179;50.968;3.134;2023-05-07T08:34:43;7.68;;;6.60;;
18104;SDS011;9179;50.968;3.134;2023-05-07T08:37:10;14.18;;;7.10;;
18104;SDS011;9179;50.968;3.134;2023-05-07T08:39:37;9.02;;;8.07;;
18104;SDS011;9179;50.968;3.134;2023-05-07T08:42:04;7.97;;;7.15;;
18104;SDS011;9179;50.968;3.134;2023-05-07T08:44:33;7.10;;;6.40;;
18104;SDS011;9179;50.968;3.134;2023-05-07T08:47:01;8.02;;;6.63;;
18104;SDS011;9179;50.968;3.134;2023-05-07T08:49:28;6.68;;;6.03;;
18104;SDS011;9179;50.968;3.134;2023-05-07T08:51:57;8.50;;;7.70;;
18104;SDS011;9179;50.968;3.134;2023-05-07T08:54:24;8.57;;;7.18;;
18104;SDS011;9179;50.968;3.134;2023-05-07T08:56:52;7.88;;;7.15;;
18104;SDS011;9179;50.968;3.134;2023-05-07T08:59:19;8.68;;;7.82;;
18104;SDS011;9179;50.968;3.134;2023-05-07T09:01:46;7.55;;;6.65;;
18104;SDS011;9179;50.968;3.134;2023-05-07T09:04:13;8.52;;;7.70;;
18104;SDS011;9179;50.968;3.134;2023-05-07T09:06:40;9.40;;;8.50;;
18104;SDS011;9179;50.968;3.134;2023-05-07T09:09:08;7.85;;;7.07;;
18104;SDS011;9179;50.968;3.134;2023-05-07T09:11:35;7.80;;;7.10;;
18104;SDS011;9179;50.968;3.134;2023-05-07T09:14:02;6.72;;;6.20;;
18104;SDS011;9179;50.968;3.134;2023-05-07T09:16:29;7.70;;;5.85;;
18104;SDS011;9179;50.968;3.134;2023-05-07T09:18:57;5.72;;;5.22;;
18104;SDS011;9179;50.968;3.134;2023-05-07T09:21:25;5.53;;;5.03;;
18104;SDS011;9179;50.968;3.134;2023-05-07T09:23:53;6.50;;;4.68;;
18104;SDS011;9179;50.968;3.134;2023-05-07T09:26:22;4.88;;;4.35;;
18104;SDS011;9179;50.968;3.134;2023-05-07T09:28:50;5.55;;;3.85;;
18104;SDS011;9179;50.968;3.134;2023-05-07T09:31:17;3.92;;;3.63;;
18104;SDS011;9179;50.968;3.134;2023-05-07T09:33:44;4.40;;;3.97;;
18104;SDS011;9179;50.968;3.134;2023-05-07T09:36:11;5.20;;;4.25;;
18104;SDS011;9179;50.968;3.134;2023-05-07T09:38:38;4.95;;;4.18;;
18104;SDS011;9179;50.968;3.134;2023-05-07T09:41:06;4.93;;;4.22;;
18104;SDS011;9179;50.968;3.134;2023-05-07T09:43:36;5.57;;;4.53;;
18104;SDS011;9179;50.968;3.134;2023-05-07T09:46:12;5.28;;;4.72;;
18104;SDS011;9179;50.968;3.134;2023-05-07T09:48:42;6.22;;;5.22;;
18104;SDS011;9179;50.968;3.134;2023-05-07T09:51:12;6.25;;;5.22;;
18104;SDS011;9179;50.968;3.134;2023-05-07T09:53:47;6.22;;;5.40;;
18104;SDS011;9179;50.968;3.134;2023-05-07T09:56:16;7.18;;;6.47;;
18104;SDS011;9179;50.968;3.134;2023-05-07T09:58:46;10.88;;;8.38;;
18104;SDS011;9179;50.968;3.134;2023-05-07T10:01:14;9.40;;;8.48;;
18104;SDS011;9179;50.968;3.134;2023-05-07T10:03:44;9.80;;;8.90;;
18104;SDS011;9179;50.968;3.134;2023-05-07T10:06:12;10.82;;;9.20;;
18104;SDS011;9179;50.968;3.134;2023-05-07T10:08:40;10.85;;;9.75;;
18104;SDS011;9179;50.968;3.134;2023-05-07T10:11:09;11.02;;;9.93;;
18104;SDS011;9179;50.968;3.134;2023-05-07T10:13:36;11.13;;;10.02;;
18104;SDS011;9179;50.968;3.134;2023-05-07T10:16:05;11.23;;;10.13;;
18104;SDS011;9179;50.968;3.134;2023-05-07T10:18:32;10.13;;;9.23;;
18104;SDS011;9179;50.968;3.134;2023-05-07T10:21:02;10.43;;;9.35;;
18104;SDS011;9179;50.968;3.134;2023-05-07T10:23:34;10.20;;;9.23;;
18104;SDS011;9179;50.968;3.134;2023-05-07T10:26:02;8.95;;;8.15;;
18104;SDS011;9179;50.968;3.134;2023-05-07T10:28:33;6.13;;;5.63;;
18104;SDS011;9179;50.968;3.134;2023-05-07T10:31:10;5.97;;;5.13;;
18104;SDS011;9179;50.968;3.134;2023-05-07T10:33:48;5.03;;;4.07;;
18104;SDS011;9179;50.968;3.134;2023-05-07T10:36:17;4.88;;;4.38;;
18104;SDS011;9179;50.968;3.134;2023-05-07T10:38:47;5.30;;;4.75;;
18104;SDS011;9179;50.968;3.134;2023-05-07T10:41:14;4.38;;;4.00;;
18104;SDS011;9179;50.968;3.134;2023-05-07T10:43:42;4.43;;;4.03;;
18104;SDS011;9179;50.968;3.134;2023-05-07T10:46:14;3.70;;;3.40;;
18104;SDS011;9179;50.968;3.134;2023-05-07T10:51:36;2.75;;;2.55;;
18104;SDS011;9179;50.968;3.134;2023-05-07T10:54:19;4.85;;;3.58;;
18104;SDS011;9179;50.968;3.134;2023-05-07T10:56:47;3.28;;;2.97;;
18104;SDS011;9179;50.968;3.134;2023-05-07T11:02:08;4.57;;;4.05;;
18104;SDS011;9179;50.968;3.134;2023-05-07T11:04:36;3.58;;;3.28;;
18104;SDS011;9179;50.968;3.134;2023-05-07T11:09:59;4.80;;;2.85;;
18104;SDS011;9179;50.968;3.134;2023-05-07T11:15:33;11.52;;;4.75;;
18104;SDS011;9179;50.968;3.134;2023-05-07T11:18:08;7.47;;;4.07;;
18104;SDS011;9179;50.968;3.134;2023-05-07T11:20:55;5.43;;;4.95;;
18104;SDS011;9179;50.968;3.134;2023-05-07T11:26:21;6.22;;;5.07;;
18104;SDS011;9179;50.968;3.134;2023-05-07T11:28:49;5.80;;;5.30;;
18104;SDS011;9179;50.968;3.134;2023-05-07T11:31:20;6.47;;;5.40;;
18104;SDS011;9179;50.968;3.134;2023-05-07T11:33:49;7.28;;;6.68;;
18104;SDS011;9179;50.968;3.134;2023-05-07T11:36:18;8.60;;;7.80;;
18104;SDS011;9179;50.968;3.134;2023-05-07T11:38:45;7.38;;;6.68;;
18104;SDS011;9179;50.968;3.134;2023-05-07T11:41:12;8.60;;;7.80;;
18104;SDS011;9179;50.968;3.134;2023-05-07T11:43:53;9.18;;;6.82;;
18104;SDS011;9179;50.968;3.134;2023-05-07T11:46:21;7.50;;;6.70;;
18104;SDS011;9179;50.968;3.134;2023-05-07T11:48:49;9.65;;;8.07;;
18104;SDS011;9179;50.968;3.134;2023-05-07T11:51:20;7.88;;;6.43;;
18104;SDS011;9179;50.968;3.134;2023-05-07T11:53:48;7.47;;;6.72;;
18104;SDS011;9179;50.968;3.134;2023-05-07T11:56:16;6.47;;;5.88;;
18104;SDS011;9179;50.968;3.134;2023-05-07T11:58:44;6.65;;;5.57;;
18104;SDS011;9179;50.968;3.134;2023-05-07T12:01:13;6.47;;;5.18;;
18104;SDS011;9179;50.968;3.134;2023-05-07T12:03:42;5.63;;;5.13;;
18104;SDS011;9179;50.968;3.134;2023-05-07T12:06:12;5.35;;;4.85;;
18104;SDS011;9179;50.968;3.134;2023-05-07T12:08:41;7.93;;;5.93;;
18104;SDS011;9179;50.968;3.134;2023-05-07T12:11:09;4.50;;;4.10;;
18104;SDS011;9179;50.968;3.134;2023-05-07T12:13:38;5.43;;;4.22;;
18104;SDS011;9179;50.968;3.134;2023-05-07T12:16:05;4.18;;;3.78;;
18104;SDS011;9179;50.968;3.134;2023-05-07T12:18:34;4.90;;;4.10;;
18104;SDS011;9179;50.968;3.134;2023-05-07T12:21:03;6.50;;;5.88;;
18104;SDS011;9179;50.968;3.134;2023-05-07T12:23:32;6.53;;;5.93;;
18104;SDS011;9179;50.968;3.134;2023-05-07T12:26:00;5.25;;;4.88;;
18104;SDS011;9179;50.968;3.134;2023-05-07T12:28:27;4.85;;;4.45;;
18104;SDS011;9179;50.968;3.134;2023-05-07T12:30:55;4.20;;;3.75;;
18104;SDS011;9179;50.968;3.134;2023-05-07T12:33:24;4.47;;;3.63;;
18104;SDS011;9179;50.968;3.134;2023-05-07T12:35:53;3.55;;;2.35;;
18104;SDS011;9179;50.968;3.134;2023-05-07T12:38:21;2.95;;;2.55;;
18104;SDS011;9179;50.968;3.134;2023-05-07T12:40:50;4.60;;;2.70;;
18104;SDS011;9179;50.968;3.134;2023-05-07T12:43:20;4.65;;;4.07;;
18104;SDS011;9179;50.968;3.134;2023-05-07T12:45:48;7.70;;;5.45;;
18104;SDS011;9179;50.968;3.134;2023-05-07T12:48:16;5.82;;;5.32;;
18104;SDS011;9179;50.968;3.134;2023-05-07T12:50:45;6.72;;;5.70;;
18104;SDS011;9179;50.968;3.134;2023-05-07T12:53:15;6.35;;;5.75;;
18104;SDS011;9179;50.968;3.134;2023-05-07T12:55:42;5.32;;;4.85;;
18104;SDS011;9179;50.968;3.134;2023-05-07T12:58:16;6.93;;;5.63;;
18104;SDS011;9179;50.968;3.134;2023-05-07T13:00:44;6.32;;;5.55;;
18104;SDS011;9179;50.968;3.134;2023-05-07T13:03:20;5.78;;;5.22;;
18104;SDS011;9179;50.968;3.134;2023-05-07T13:05:49;6.38;;;5.38;;
18104;SDS011;9179;50.968;3.134;2023-05-07T13:08:26;6.70;;;5.28;;
18104;SDS011;9179;50.968;3.134;2023-05-07T13:10:54;8.10;;;6.45;;
18104;SDS011;9179;50.968;3.134;2023-05-07T13:13:24;9.00;;;6.40;;
18104;SDS011;9179;50.968;3.134;2023-05-07T13:15:51;6.47;;;5.53;;
18104;SDS011;9179;50.968;3.134;2023-05-07T13:18:18;8.75;;;7.82;;
18104;SDS011;9179;50.968;3.134;2023-05-07T13:20:45;6.90;;;6.25;;
18104;SDS011;9179;50.968;3.134;2023-05-07T13:23:12;6.75;;;5.50;;
18104;SDS011;9179;50.968;3.134;2023-05-07T13:25:39;5.03;;;4.53;;
18104;SDS011;9179;50.968;3.134;2023-05-07T13:28:06;7.47;;;6.88;;
18104;SDS011;9179;50.968;3.134;2023-05-07T13:30:34;6.47;;;5.90;;
18104;SDS011;9179;50.968;3.134;2023-05-07T13:33:01;6.75;;;6.07;;
18104;SDS011;9179;50.968;3.134;2023-05-07T13:35:28;5.45;;;5.03;;
18104;SDS011;9179;50.968;3.134;2023-05-07T13:37:55;5.32;;;3.95;;
18104;SDS011;9179;50.968;3.134;2023-05-07T13:40:22;5.13;;;4.40;;
18104;SDS011;9179;50.968;3.134;2023-05-07T13:42:50;6.15;;;5.18;;
18104;SDS011;9179;50.968;3.134;2023-05-07T13:45:17;6.53;;;4.63;;
18104;SDS011;9179;50.968;3.134;2023-05-07T13:47:46;5.20;;;3.83;;
18104;SDS011;9179;50.968;3.134;2023-05-07T13:50:14;5.32;;;4.82;;
18104;SDS011;9179;50.968;3.134;2023-05-07T13:52:42;5.03;;;4.63;;
18104;SDS011;9179;50.968;3.134;2023-05-07T13:55:15;5.20;;;4.05;;
18104;SDS011;9179;50.968;3.134;2023-05-07T13:57:42;6.85;;;4.25;;
18104;SDS011;9179;50.968;3.134;2023-05-07T14:00:10;4.20;;;3.80;;
18104;SDS011;9179;50.968;3.134;2023-05-07T14:02:37;4.30;;;3.88;;
18104;SDS011;9179;50.968;3.134;2023-05-07T14:05:06;4.72;;;3.80;;
18104;SDS011;9179;50.968;3.134;2023-05-07T14:07:34;4.82;;;4.32;;
18104;SDS011;9179;50.968;3.134;2023-05-07T14:10:01;4.78;;;4.38;;
18104;SDS011;9179;50.968;3.134;2023-05-07T14:12:28;5.30;;;4.30;;
18104;SDS011;9179;50.968;3.134;2023-05-07T14:14:55;5.13;;;4.63;;
18104;SDS011;9179;50.968;3.134;2023-05-07T14:17:22;5.22;;;4.70;;
18104;SDS011;9179;50.968;3.134;2023-05-07T14:19:51;7.72;;;4.55;;
18104;SDS011;9179;50.968;3.134;2023-05-07T14:22:20;5.82;;;5.28;;
18104;SDS011;9179;50.968;3.134;2023-05-07T14:24:48;5.43;;;4.82;;
18104;SDS011;9179;50.968;3.134;2023-05-07T14:27:15;4.88;;;4.40;;
18104;SDS011;9179;50.968;3.134;2023-05-07T14:29:42;5.28;;;4.78;;
18104;SDS011;9179;50.968;3.134;2023-05-07T14:32:10;4.63;;;4.22;;
18104;SDS011;9179;50.968;3.134;2023-05-07T14:34:38;5.95;;;4.30;;
18104;SDS011;9179;50.968;3.134;2023-05-07T14:37:05;5.53;;;4.22;;
18104;SDS011;9179;50.968;3.134;2023-05-07T14:39:33;4.55;;;4.18;;
18104;SDS011;9179;50.968;3.134;2023-05-07T14:42:00;4.28;;;3.67;;
18104;SDS011;9179;50.968;3.134;2023-05-07T14:44:27;3.67;;;3.40;;
18104;SDS011;9179;50.968;3.134;2023-05-07T14:46:54;5.88;;;3.63;;
18104;SDS011;9179;50.968;3.134;2023-05-07T14:49:21;3.45;;;2.83;;
18104;SDS011;9179;50.968;3.134;2023-05-07T14:51:48;3.13;;;2.78;;
18104;SDS011;9179;50.968;3.134;2023-05-07T14:54:15;2.33;;;2.13;;
18104;SDS011;9179;50.968;3.134;2023-05-07T14:56:44;3.47;;;2.33;;
18104;SDS011;9179;50.968;3.134;2023-05-07T14:59:11;1.80;;;1.70;;
18104;SDS011;9179;50.968;3.134;2023-05-07T15:01:38;3.40;;;2.30;;
18104;SDS011;9179;50.968;3.134;2023-05-07T15:04:10;3.67;;;1.90;;
18104;SDS011;9179;50.968;3.134;2023-05-07T15:06:37;2.10;;;2.00;;
18104;SDS011;9179;50.968;3.134;2023-05-07T15:09:04;2.50;;;2.15;;